sensor_id;sensor_type;location;lat;lon;timestamp;noise_LAeq;noise_LA_min;noise_LA_max;noise_LA01;noise_LA95
67308;Laerm;57662;51.436;5.978;2022-08-19T00:00:10;40.09;32.98;50.66;;
67308;Laerm;57662;51.436;5.978;2022-08-19T00:00:21;35.05;33.16;38.55;;
67308;Laerm;57662;51.436;5.978;2022-08-19T00:00:31;34.82;33.38;36.48;;
67308;Laerm;57662;51.436;5.978;2022-08-19T00:00:41;34.96;33.57;37.30;;
67308;Laerm;57662;51.436;5.978;2022-08-19T00:00:52;35.07;33.49;36.89;;
67308;Laerm;57662;51.436;5.978;2022-08-19T00:01:02;35.17;33.68;36.69;;
67308;Laerm;57662;51.436;5.978;2022-08-19T00:01:13;35.07;33.45;36.85;;
67308;Laerm;57662;51.436;5.978;2022-08-19T00:01:24;35.09;33.82;36.63;;
67308;Laerm;57662;51.436;5.978;2022-08-19T00:01:35;34.93;33.67;36.74;;
67308;Laerm;57662;51.436;5.978;2022-08-19T00:01:47;34.73;33.51;36.07;;
67308;Laerm;57662;51.436;5.978;2022-08-19T00:01:57;34.87;33.64;36.46;;
67308;Laerm;57662;51.436;5.978;2022-08-19T00:02:08;34.91;33.70;36.27;;
67308;Laerm;57662;51.436;5.978;2022-08-19T00:02:18;34.79;33.62;36.38;;
67308;Laerm;57662;51.436;5.978;2022-08-19T00:02:28;35.02;33.53;40.59;;
67308;Laerm;57662;51.436;5.978;2022-08-19T00:02:38;35.00;33.71;36.52;;
67308;Laerm;57662;51.436;5.978;2022-08-19T00:02:49;34.98;33.60;36.39;;
67308;Laerm;57662;51.436;5.978;2022-08-19T00:02:59;35.11;33.74;36.75;;
67308;Laerm;57662;51.436;5.978;2022-08-19T00:03:09;35.10;33.37;36.67;;
67308;Laerm;57662;51.436;5.978;2022-08-19T00:03:19;35.22;33.98;36.35;;
67308;Laerm;57662;51.436;5.978;2022-08-19T00:03:30;35.13;33.79;36.73;;
67308;Laerm;57662;51.436;5.978;2022-08-19T00:03:40;35.23;33.74;36.46;;
67308;Laerm;57662;51.436;5.978;2022-08-19T00:03:50;35.25;33.44;39.08;;
67308;Laerm;57662;51.436;5.978;2022-08-19T00:04:01;35.16;33.80;36.66;;
67308;Laerm;57662;51.436;5.978;2022-08-19T00:04:12;35.10;33.78;36.81;;
67308;Laerm;57662;51.436;5.978;2022-08-19T00:04:25;34.99;33.54;36.39;;
67308;Laerm;57662;51.436;5.978;2022-08-19T00:04:35;35.12;33.49;36.82;;
67308;Laerm;57662;51.436;5.978;2022-08-19T00:04:46;35.12;33.61;36.58;;
67308;Laerm;57662;51.436;5.978;2022-08-19T00:04:58;34.92;33.40;36.30;;
67308;Laerm;57662;51.436;5.978;2022-08-19T00:05:10;34.79;33.37;36.24;;
67308;Laerm;57662;51.436;5.978;2022-08-19T00:05:21;34.85;32.97;36.43;;
67308;Laerm;57662;51.436;5.978;2022-08-19T00:05:31;35.13;33.52;36.68;;
67308;Laerm;57662;51.436;5.978;2022-08-19T00:05:42;34.98;33.49;36.62;;
67308;Laerm;57662;51.436;5.978;2022-08-19T00:05:52;35.14;33.52;36.69;;
67308;Laerm;57662;51.436;5.978;2022-08-19T00:06:02;35.13;33.69;36.51;;
67308;Laerm;57662;51.436;5.978;2022-08-19T00:06:13;35.19;33.61;36.85;;
67308;Laerm;57662;51.436;5.978;2022-08-19T00:06:23;35.13;33.76;36.36;;
67308;Laerm;57662;51.436;5.978;2022-08-19T00:06:34;35.30;33.87;37.11;;
67308;Laerm;57662;51.436;5.978;2022-08-19T00:06:45;35.41;33.75;36.76;;
67308;Laerm;57662;51.436;5.978;2022-08-19T00:06:56;35.46;33.78;36.67;;
67308;Laerm;57662;51.436;5.978;2022-08-19T00:07:07;37.20;34.29;40.09;;
67308;Laerm;57662;51.436;5.978;2022-08-19T00:07:17;36.60;35.03;39.21;;
67308;Laerm;57662;51.436;5.978;2022-08-19T00:07:27;40.98;36.71;44.94;;
67308;Laerm;57662;51.436;5.978;2022-08-19T00:07:37;39.70;35.18;43.46;;
67308;Laerm;57662;51.436;5.978;2022-08-19T00:07:48;35.90;34.02;37.48;;
67308;Laerm;57662;51.436;5.978;2022-08-19T00:07:59;34.95;33.30;36.59;;
67308;Laerm;57662;51.436;5.978;2022-08-19T00:08:09;34.85;33.26;39.24;;
67308;Laerm;57662;51.436;5.978;2022-08-19T00:08:19;34.96;33.24;36.63;;
67308;Laerm;57662;51.436;5.978;2022-08-19T00:08:30;34.95;33.69;36.64;;
67308;Laerm;57662;51.436;5.978;2022-08-19T00:08:41;34.95;33.77;36.54;;
67308;Laerm;57662;51.436;5.978;2022-08-19T00:08:51;34.99;33.29;36.85;;
67308;Laerm;57662;51.436;5.978;2022-08-19T00:09:02;34.99;33.56;36.52;;
67308;Laerm;57662;51.436;5.978;2022-08-19T00:09:13;35.00;33.35;36.95;;
67308;Laerm;57662;51.436;5.978;2022-08-19T00:09:25;35.26;33.93;36.70;;
67308;Laerm;57662;51.436;5.978;2022-08-19T00:09:35;35.78;34.04;38.50;;
67308;Laerm;57662;51.436;5.978;2022-08-19T00:09:45;38.49;34.32;46.77;;
67308;Laerm;57662;51.436;5.978;2022-08-19T00:09:56;35.40;33.80;36.97;;
67308;Laerm;57662;51.436;5.978;2022-08-19T00:10:06;35.35;33.64;36.65;;
67308;Laerm;57662;51.436;5.978;2022-08-19T00:10:18;35.15;33.63;36.61;;
67308;Laerm;57662;51.436;5.978;2022-08-19T00:10:29;35.28;33.79;36.56;;
67308;Laerm;57662;51.436;5.978;2022-08-19T00:10:39;35.37;33.90;37.06;;
67308;Laerm;57662;51.436;5.978;2022-08-19T00:10:49;35.12;33.54;37.22;;
67308;Laerm;57662;51.436;5.978;2022-08-19T00:10:59;34.88;33.47;35.92;;
67308;Laerm;57662;51.436;5.978;2022-08-19T00:11:10;35.07;33.90;36.59;;
67308;Laerm;57662;51.436;5.978;2022-08-19T00:11:20;34.87;33.47;36.43;;
67308;Laerm;57662;51.436;5.978;2022-08-19T00:11:31;34.71;33.23;36.17;;
67308;Laerm;57662;51.436;5.978;2022-08-19T00:11:41;34.94;33.60;36.44;;
67308;Laerm;57662;51.436;5.978;2022-08-19T00:11:53;34.97;33.22;36.61;;
67308;Laerm;57662;51.436;5.978;2022-08-19T00:12:05;34.83;33.34;36.69;;
67308;Laerm;57662;51.436;5.978;2022-08-19T00:12:15;34.82;33.35;36.31;;
67308;Laerm;57662;51.436;5.978;2022-08-19T00:12:26;34.67;32.70;36.10;;
67308;Laerm;57662;51.436;5.978;2022-08-19T00:12:36;34.82;33.46;36.43;;
67308;Laerm;57662;51.436;5.978;2022-08-19T00:12:47;34.93;33.55;36.57;;
67308;Laerm;57662;51.436;5.978;2022-08-19T00:12:58;35.25;33.93;36.67;;
67308;Laerm;57662;51.436;5.978;2022-08-19T00:13:08;34.87;33.67;36.27;;
67308;Laerm;57662;51.436;5.978;2022-08-19T00:13:19;34.95;33.39;36.53;;
67308;Laerm;57662;51.436;5.978;2022-08-19T00:13:29;35.12;33.72;36.58;;
67308;Laerm;57662;51.436;5.978;2022-08-19T00:13:40;35.64;33.35;40.29;;
67308;Laerm;57662;51.436;5.978;2022-08-19T00:13:50;34.97;32.76;36.83;;
67308;Laerm;57662;51.436;5.978;2022-08-19T00:14:00;36.47;34.23;39.54;;
67308;Laerm;57662;51.436;5.978;2022-08-19T00:14:11;38.76;34.19;41.81;;
67308;Laerm;57662;51.436;5.978;2022-08-19T00:14:22;34.88;33.29;36.94;;
67308;Laerm;57662;51.436;5.978;2022-08-19T00:14:33;34.82;33.51;36.14;;
67308;Laerm;57662;51.436;5.978;2022-08-19T00:14:43;34.84;33.42;37.20;;
67308;Laerm;57662;51.436;5.978;2022-08-19T00:14:53;34.64;33.25;36.21;;
67308;Laerm;57662;51.436;5.978;2022-08-19T00:15:05;34.60;32.92;35.83;;
67308;Laerm;57662;51.436;5.978;2022-08-19T00:15:17;34.80;33.43;36.36;;
67308;Laerm;57662;51.436;5.978;2022-08-19T00:15:28;34.72;32.73;36.59;;
67308;Laerm;57662;51.436;5.978;2022-08-19T00:15:38;34.65;33.44;36.09;;
67308;Laerm;57662;51.436;5.978;2022-08-19T00:15:49;34.57;32.89;39.74;;
67308;Laerm;57662;51.436;5.978;2022-08-19T00:15:59;34.50;33.21;35.82;;
67308;Laerm;57662;51.436;5.978;2022-08-19T00:16:10;34.42;33.14;35.75;;
67308;Laerm;57662;51.436;5.978;2022-08-19T00:16:20;34.45;33.23;35.91;;
67308;Laerm;57662;51.436;5.978;2022-08-19T00:16:31;34.44;32.83;36.10;;
67308;Laerm;57662;51.436;5.978;2022-08-19T00:16:42;34.57;33.38;36.62;;
67308;Laerm;57662;51.436;5.978;2022-08-19T00:16:53;34.79;33.28;35.91;;
67308;Laerm;57662;51.436;5.978;2022-08-19T00:17:04;34.55;32.64;36.11;;
67308;Laerm;57662;51.436;5.978;2022-08-19T00:17:16;34.52;33.13;36.63;;
67308;Laerm;57662;51.436;5.978;2022-08-19T00:17:26;34.66;33.41;36.16;;
67308;Laerm;57662;51.436;5.978;2022-08-19T00:17:38;34.57;33.18;36.05;;
67308;Laerm;57662;51.436;5.978;2022-08-19T00:17:48;34.50;33.17;35.82;;
67308;Laerm;57662;51.436;5.978;2022-08-19T00:17:58;34.62;33.21;36.03;;
67308;Laerm;57662;51.436;5.978;2022-08-19T00:18:08;34.83;33.45;36.26;;
67308;Laerm;57662;51.436;5.978;2022-08-19T00:18:19;34.68;33.11;36.14;;
67308;Laerm;57662;51.436;5.978;2022-08-19T00:18:29;34.68;32.81;36.44;;
67308;Laerm;57662;51.436;5.978;2022-08-19T00:18:40;34.86;33.53;36.48;;
67308;Laerm;57662;51.436;5.978;2022-08-19T00:18:50;35.00;33.71;36.87;;
67308;Laerm;57662;51.436;5.978;2022-08-19T00:19:01;34.93;33.43;36.45;;
67308;Laerm;57662;51.436;5.978;2022-08-19T00:19:11;35.01;33.67;36.25;;
67308;Laerm;57662;51.436;5.978;2022-08-19T00:19:22;35.20;32.88;37.73;;
67308;Laerm;57662;51.436;5.978;2022-08-19T00:19:32;35.05;33.56;37.18;;
67308;Laerm;57662;51.436;5.978;2022-08-19T00:19:43;34.98;33.45;37.53;;
67308;Laerm;57662;51.436;5.978;2022-08-19T00:19:53;34.76;33.56;35.92;;
67308;Laerm;57662;51.436;5.978;2022-08-19T00:20:03;34.77;33.02;35.96;;
67308;Laerm;57662;51.436;5.978;2022-08-19T00:20:17;34.75;33.39;36.37;;
67308;Laerm;57662;51.436;5.978;2022-08-19T00:20:28;34.64;33.32;35.92;;
67308;Laerm;57662;51.436;5.978;2022-08-19T00:20:38;34.65;33.40;36.14;;
67308;Laerm;57662;51.436;5.978;2022-08-19T00:20:50;34.73;33.25;36.11;;
67308;Laerm;57662;51.436;5.978;2022-08-19T00:21:00;34.50;33.21;35.98;;
67308;Laerm;57662;51.436;5.978;2022-08-19T00:21:10;34.38;33.14;35.62;;
67308;Laerm;57662;51.436;5.978;2022-08-19T00:21:21;34.70;33.23;45.95;;
67308;Laerm;57662;51.436;5.978;2022-08-19T00:21:31;34.30;32.94;35.41;;
67308;Laerm;57662;51.436;5.978;2022-08-19T00:21:41;34.50;33.33;35.67;;
67308;Laerm;57662;51.436;5.978;2022-08-19T00:21:52;34.51;33.19;36.86;;
67308;Laerm;57662;51.436;5.978;2022-08-19T00:22:03;34.49;32.83;36.77;;
67308;Laerm;57662;51.436;5.978;2022-08-19T00:22:15;36.22;33.15;50.25;;
67308;Laerm;57662;51.436;5.978;2022-08-19T00:22:27;37.16;33.18;50.24;;
67308;Laerm;57662;51.436;5.978;2022-08-19T00:22:38;35.74;33.01;45.84;;
67308;Laerm;57662;51.436;5.978;2022-08-19T00:22:49;44.25;33.46;66.34;;
67308;Laerm;57662;51.436;5.978;2022-08-19T00:22:59;34.66;33.42;38.44;;
67308;Laerm;57662;51.436;5.978;2022-08-19T00:23:09;34.88;33.33;42.05;;
67308;Laerm;57662;51.436;5.978;2022-08-19T00:23:20;34.88;33.35;42.33;;
67308;Laerm;57662;51.436;5.978;2022-08-19T00:23:30;34.56;33.42;35.86;;
67308;Laerm;57662;51.436;5.978;2022-08-19T00:23:44;34.92;33.22;36.51;;
67308;Laerm;57662;51.436;5.978;2022-08-19T00:23:54;37.67;33.60;41.94;;
67308;Laerm;57662;51.436;5.978;2022-08-19T00:24:06;42.08;37.13;46.66;;
67308;Laerm;57662;51.436;5.978;2022-08-19T00:24:17;40.69;36.99;45.17;;
67308;Laerm;57662;51.436;5.978;2022-08-19T00:24:27;36.44;34.36;38.54;;
67308;Laerm;57662;51.436;5.978;2022-08-19T00:24:38;38.11;34.68;47.99;;
67308;Laerm;57662;51.436;5.978;2022-08-19T00:24:50;37.40;34.29;48.42;;
67308;Laerm;57662;51.436;5.978;2022-08-19T00:25:01;36.06;33.82;48.30;;
67308;Laerm;57662;51.436;5.978;2022-08-19T00:25:11;35.12;33.71;36.69;;
67308;Laerm;57662;51.436;5.978;2022-08-19T00:25:22;34.80;33.41;36.50;;
67308;Laerm;57662;51.436;5.978;2022-08-19T00:25:32;34.83;33.57;36.30;;
67308;Laerm;57662;51.436;5.978;2022-08-19T00:25:43;35.24;33.92;38.88;;
67308;Laerm;57662;51.436;5.978;2022-08-19T00:25:53;35.19;33.59;36.55;;
67308;Laerm;57662;51.436;5.978;2022-08-19T00:26:04;35.14;33.86;36.96;;
67308;Laerm;57662;51.436;5.978;2022-08-19T00:26:14;34.88;33.57;36.12;;
67308;Laerm;57662;51.436;5.978;2022-08-19T00:26:25;34.96;33.75;36.71;;
67308;Laerm;57662;51.436;5.978;2022-08-19T00:26:37;34.90;33.30;36.85;;
67308;Laerm;57662;51.436;5.978;2022-08-19T00:26:47;35.06;33.81;36.39;;
67308;Laerm;57662;51.436;5.978;2022-08-19T00:26:58;35.06;33.72;36.43;;
67308;Laerm;57662;51.436;5.978;2022-08-19T00:27:08;35.07;33.43;36.49;;
67308;Laerm;57662;51.436;5.978;2022-08-19T00:27:19;35.15;33.76;36.83;;
67308;Laerm;57662;51.436;5.978;2022-08-19T00:27:29;35.22;33.72;36.63;;
67308;Laerm;57662;51.436;5.978;2022-08-19T00:27:39;35.66;33.97;45.12;;
67308;Laerm;57662;51.436;5.978;2022-08-19T00:27:49;35.27;33.89;36.57;;
67308;Laerm;57662;51.436;5.978;2022-08-19T00:28:00;35.11;33.35;36.74;;
67308;Laerm;57662;51.436;5.978;2022-08-19T00:28:10;35.19;33.44;36.35;;
67308;Laerm;57662;51.436;5.978;2022-08-19T00:28:20;35.19;33.86;36.32;;
67308;Laerm;57662;51.436;5.978;2022-08-19T00:28:31;35.09;33.27;36.32;;
67308;Laerm;57662;51.436;5.978;2022-08-19T00:28:42;35.31;33.61;41.96;;
67308;Laerm;57662;51.436;5.978;2022-08-19T00:28:53;35.00;33.97;36.54;;
67308;Laerm;57662;51.436;5.978;2022-08-19T00:29:04;35.10;33.37;36.51;;
67308;Laerm;57662;51.436;5.978;2022-08-19T00:29:16;35.09;33.37;36.31;;
67308;Laerm;57662;51.436;5.978;2022-08-19T00:29:27;35.20;33.56;36.81;;
67308;Laerm;57662;51.436;5.978;2022-08-19T00:29:38;35.07;33.89;36.41;;
67308;Laerm;57662;51.436;5.978;2022-08-19T00:29:48;35.01;33.64;36.77;;
67308;Laerm;57662;51.436;5.978;2022-08-19T00:29:58;34.83;33.71;36.44;;
67308;Laerm;57662;51.436;5.978;2022-08-19T00:30:09;34.76;33.34;36.17;;
67308;Laerm;57662;51.436;5.978;2022-08-19T00:30:20;34.90;33.16;36.43;;
67308;Laerm;57662;51.436;5.978;2022-08-19T00:30:30;34.89;33.48;36.17;;
67308;Laerm;57662;51.436;5.978;2022-08-19T00:30:40;34.76;33.53;36.62;;
67308;Laerm;57662;51.436;5.978;2022-08-19T00:30:51;34.69;33.38;36.13;;
67308;Laerm;57662;51.436;5.978;2022-08-19T00:31:03;34.72;33.37;36.06;;
67308;Laerm;57662;51.436;5.978;2022-08-19T00:31:14;37.98;33.23;49.40;;
67308;Laerm;57662;51.436;5.978;2022-08-19T00:31:26;34.64;33.48;35.98;;
67308;Laerm;57662;51.436;5.978;2022-08-19T00:31:37;34.71;33.36;36.09;;
67308;Laerm;57662;51.436;5.978;2022-08-19T00:31:48;34.78;33.23;36.58;;
67308;Laerm;57662;51.436;5.978;2022-08-19T00:32:00;34.75;33.26;36.02;;
67308;Laerm;57662;51.436;5.978;2022-08-19T00:32:10;34.84;33.37;40.55;;
67308;Laerm;57662;51.436;5.978;2022-08-19T00:32:20;34.63;33.36;35.64;;
67308;Laerm;57662;51.436;5.978;2022-08-19T00:32:31;34.75;33.45;35.94;;
67308;Laerm;57662;51.436;5.978;2022-08-19T00:32:41;34.85;33.55;36.03;;
67308;Laerm;57662;51.436;5.978;2022-08-19T00:32:52;34.87;33.58;36.37;;
67308;Laerm;57662;51.436;5.978;2022-08-19T00:33:04;34.86;33.42;36.61;;
67308;Laerm;57662;51.436;5.978;2022-08-19T00:33:15;34.72;33.57;35.91;;
67308;Laerm;57662;51.436;5.978;2022-08-19T00:33:26;34.65;33.36;35.80;;
67308;Laerm;57662;51.436;5.978;2022-08-19T00:33:36;34.66;33.20;35.98;;
67308;Laerm;57662;51.436;5.978;2022-08-19T00:33:47;34.77;33.61;36.15;;
67308;Laerm;57662;51.436;5.978;2022-08-19T00:34:00;34.77;33.60;36.03;;
67308;Laerm;57662;51.436;5.978;2022-08-19T00:34:11;34.53;33.10;36.08;;
67308;Laerm;57662;51.436;5.978;2022-08-19T00:34:22;34.48;33.07;35.67;;
67308;Laerm;57662;51.436;5.978;2022-08-19T00:34:32;34.66;33.28;36.20;;
67308;Laerm;57662;51.436;5.978;2022-08-19T00:34:42;34.87;33.25;36.19;;
67308;Laerm;57662;51.436;5.978;2022-08-19T00:34:53;39.64;33.63;44.03;;
67308;Laerm;57662;51.436;5.978;2022-08-19T00:35:03;41.08;37.46;43.63;;
67308;Laerm;57662;51.436;5.978;2022-08-19T00:35:14;42.91;38.99;46.10;;
67308;Laerm;57662;51.436;5.978;2022-08-19T00:35:25;44.93;41.71;47.26;;
67308;Laerm;57662;51.436;5.978;2022-08-19T00:35:37;65.51;44.65;71.11;;
67308;Laerm;57662;51.436;5.978;2022-08-19T00:35:48;68.97;66.55;71.76;;
67308;Laerm;57662;51.436;5.978;2022-08-19T00:36:03;69.17;61.65;73.98;;
67308;Laerm;57662;51.436;5.978;2022-08-19T00:36:14;56.76;40.38;64.20;;
67308;Laerm;57662;51.436;5.978;2022-08-19T00:36:25;40.45;35.38;45.69;;
67308;Laerm;57662;51.436;5.978;2022-08-19T00:36:35;36.94;34.82;41.50;;
67308;Laerm;57662;51.436;5.978;2022-08-19T00:36:45;37.10;35.38;39.04;;
67308;Laerm;57662;51.436;5.978;2022-08-19T00:36:56;37.65;35.77;39.03;;
67308;Laerm;57662;51.436;5.978;2022-08-19T00:37:06;36.59;34.76;38.47;;
67308;Laerm;57662;51.436;5.978;2022-08-19T00:37:17;35.54;34.22;37.43;;
67308;Laerm;57662;51.436;5.978;2022-08-19T00:37:28;35.92;34.34;37.84;;
67308;Laerm;57662;51.436;5.978;2022-08-19T00:37:38;37.35;35.60;40.48;;
67308;Laerm;57662;51.436;5.978;2022-08-19T00:37:53;37.18;34.85;39.89;;
67308;Laerm;57662;51.436;5.978;2022-08-19T00:38:03;35.19;33.45;37.45;;
67308;Laerm;57662;51.436;5.978;2022-08-19T00:38:14;34.84;33.27;41.23;;
67308;Laerm;57662;51.436;5.978;2022-08-19T00:38:24;34.70;33.46;36.09;;
67308;Laerm;57662;51.436;5.978;2022-08-19T00:38:34;34.90;33.60;36.08;;
67308;Laerm;57662;51.436;5.978;2022-08-19T00:38:45;34.94;33.44;35.94;;
67308;Laerm;57662;51.436;5.978;2022-08-19T00:38:56;34.75;33.49;35.99;;
67308;Laerm;57662;51.436;5.978;2022-08-19T00:39:06;34.67;33.51;35.82;;
67308;Laerm;57662;51.436;5.978;2022-08-19T00:39:16;34.79;33.05;36.12;;
67308;Laerm;57662;51.436;5.978;2022-08-19T00:39:27;34.90;33.35;36.43;;
67308;Laerm;57662;51.436;5.978;2022-08-19T00:39:37;34.74;33.36;35.85;;
67308;Laerm;57662;51.436;5.978;2022-08-19T00:39:47;34.83;33.35;36.45;;
67308;Laerm;57662;51.436;5.978;2022-08-19T00:39:57;34.58;32.98;35.94;;
67308;Laerm;57662;51.436;5.978;2022-08-19T00:40:08;34.54;33.17;37.57;;
67308;Laerm;57662;51.436;5.978;2022-08-19T00:40:19;34.40;33.06;35.90;;
67308;Laerm;57662;51.436;5.978;2022-08-19T00:40:29;34.37;33.12;35.74;;
67308;Laerm;57662;51.436;5.978;2022-08-19T00:40:42;34.38;33.19;35.66;;
67308;Laerm;57662;51.436;5.978;2022-08-19T00:40:52;34.64;32.78;37.03;;
67308;Laerm;57662;51.436;5.978;2022-08-19T00:41:02;39.03;34.05;45.86;;
67308;Laerm;57662;51.436;5.978;2022-08-19T00:41:13;35.01;33.28;36.58;;
67308;Laerm;57662;51.436;5.978;2022-08-19T00:41:24;34.55;33.01;35.99;;
67308;Laerm;57662;51.436;5.978;2022-08-19T00:41:34;34.50;33.28;35.61;;
67308;Laerm;57662;51.436;5.978;2022-08-19T00:41:45;34.81;33.42;36.05;;
67308;Laerm;57662;51.436;5.978;2022-08-19T00:41:58;34.29;32.92;35.61;;
67308;Laerm;57662;51.436;5.978;2022-08-19T00:42:09;34.19;32.84;35.25;;
67308;Laerm;57662;51.436;5.978;2022-08-19T00:42:19;34.14;32.80;35.58;;
67308;Laerm;57662;51.436;5.978;2022-08-19T00:42:30;34.27;32.84;36.17;;
67308;Laerm;57662;51.436;5.978;2022-08-19T00:42:40;34.21;32.50;35.52;;
67308;Laerm;57662;51.436;5.978;2022-08-19T00:42:50;34.26;33.04;35.31;;
67308;Laerm;57662;51.436;5.978;2022-08-19T00:43:10;34.26;33.05;35.73;;
67308;Laerm;57662;51.436;5.978;2022-08-19T00:43:21;34.26;32.89;35.89;;
67308;Laerm;57662;51.436;5.978;2022-08-19T00:43:32;34.35;33.20;36.66;;
67308;Laerm;57662;51.436;5.978;2022-08-19T00:43:42;34.25;32.57;35.30;;
67308;Laerm;57662;51.436;5.978;2022-08-19T00:44:13;34.25;32.77;35.60;;
67308;Laerm;57662;51.436;5.978;2022-08-19T00:44:27;34.10;32.89;35.38;;
67308;Laerm;57662;51.436;5.978;2022-08-19T00:44:38;33.98;32.71;35.25;;
67308;Laerm;57662;51.436;5.978;2022-08-19T00:44:48;34.05;32.33;35.56;;
67308;Laerm;57662;51.436;5.978;2022-08-19T00:44:59;33.93;32.75;35.07;;
67308;Laerm;57662;51.436;5.978;2022-08-19T00:45:12;33.91;32.83;35.39;;
67308;Laerm;57662;51.436;5.978;2022-08-19T00:45:24;34.00;32.76;35.78;;
67308;Laerm;57662;51.436;5.978;2022-08-19T00:45:34;34.05;32.79;35.47;;
67308;Laerm;57662;51.436;5.978;2022-08-19T00:45:46;34.14;32.71;35.34;;
67308;Laerm;57662;51.436;5.978;2022-08-19T00:45:58;33.92;32.62;36.51;;
67308;Laerm;57662;51.436;5.978;2022-08-19T00:46:09;33.93;32.54;35.05;;
67308;Laerm;57662;51.436;5.978;2022-08-19T00:46:19;34.14;32.37;37.20;;
67308;Laerm;57662;51.436;5.978;2022-08-19T00:46:30;34.16;32.80;35.29;;
67308;Laerm;57662;51.436;5.978;2022-08-19T00:46:43;34.33;33.11;35.48;;
67308;Laerm;57662;51.436;5.978;2022-08-19T00:46:55;34.30;33.01;35.69;;
67308;Laerm;57662;51.436;5.978;2022-08-19T00:47:05;34.39;32.99;35.77;;
67308;Laerm;57662;51.436;5.978;2022-08-19T00:47:16;34.35;32.97;35.75;;
67308;Laerm;57662;51.436;5.978;2022-08-19T00:47:26;34.12;32.83;35.46;;
67308;Laerm;57662;51.436;5.978;2022-08-19T00:47:37;34.24;32.92;36.01;;
67308;Laerm;57662;51.436;5.978;2022-08-19T00:47:47;34.23;32.77;36.03;;
67308;Laerm;57662;51.436;5.978;2022-08-19T00:47:57;34.42;33.13;39.49;;
67308;Laerm;57662;51.436;5.978;2022-08-19T00:48:07;34.25;32.61;35.68;;
67308;Laerm;57662;51.436;5.978;2022-08-19T00:48:18;34.29;33.01;35.59;;
67308;Laerm;57662;51.436;5.978;2022-08-19T00:48:29;34.15;32.64;35.34;;
67308;Laerm;57662;51.436;5.978;2022-08-19T00:48:39;34.32;32.88;35.62;;
67308;Laerm;57662;51.436;5.978;2022-08-19T00:48:49;34.21;32.91;35.54;;
67308;Laerm;57662;51.436;5.978;2022-08-19T00:49:00;34.21;32.99;35.77;;
67308;Laerm;57662;51.436;5.978;2022-08-19T00:49:16;34.19;32.60;36.17;;
67308;Laerm;57662;51.436;5.978;2022-08-19T00:49:44;34.35;32.97;35.69;;
67308;Laerm;57662;51.436;5.978;2022-08-19T00:49:56;34.38;33.07;36.05;;
67308;Laerm;57662;51.436;5.978;2022-08-19T00:50:08;34.48;33.03;35.83;;
67308;Laerm;57662;51.436;5.978;2022-08-19T00:50:19;34.34;33.36;35.71;;
67308;Laerm;57662;51.436;5.978;2022-08-19T00:50:30;34.51;33.18;35.72;;
67308;Laerm;57662;51.436;5.978;2022-08-19T00:50:40;34.40;33.18;35.56;;
67308;Laerm;57662;51.436;5.978;2022-08-19T00:50:53;34.62;33.13;35.88;;
67308;Laerm;57662;51.436;5.978;2022-08-19T00:51:04;34.57;33.18;35.76;;
67308;Laerm;57662;51.436;5.978;2022-08-19T00:51:15;34.41;32.30;35.60;;
67308;Laerm;57662;51.436;5.978;2022-08-19T00:51:26;34.44;33.25;35.79;;
67308;Laerm;57662;51.436;5.978;2022-08-19T00:51:37;34.41;32.77;35.98;;
67308;Laerm;57662;51.436;5.978;2022-08-19T00:51:48;34.43;33.16;35.95;;
67308;Laerm;57662;51.436;5.978;2022-08-19T00:52:23;34.42;32.68;35.88;;
67308;Laerm;57662;51.436;5.978;2022-08-19T00:52:32;34.40;32.53;44.09;;
67308;Laerm;57662;51.436;5.978;2022-08-19T00:52:45;34.43;32.82;35.78;;
67308;Laerm;57662;51.436;5.978;2022-08-19T00:52:55;34.42;33.28;35.88;;
67308;Laerm;57662;51.436;5.978;2022-08-19T00:53:06;34.24;32.95;35.91;;
67308;Laerm;57662;51.436;5.978;2022-08-19T00:53:18;34.23;33.11;36.36;;
67308;Laerm;57662;51.436;5.978;2022-08-19T00:53:29;34.29;32.78;35.40;;
67308;Laerm;57662;51.436;5.978;2022-08-19T00:53:41;34.43;33.20;36.41;;
67308;Laerm;57662;51.436;5.978;2022-08-19T00:53:52;34.44;32.99;35.92;;
67308;Laerm;57662;51.436;5.978;2022-08-19T00:54:02;34.47;33.18;35.74;;
67308;Laerm;57662;51.436;5.978;2022-08-19T00:54:13;34.34;33.20;35.90;;
67308;Laerm;57662;51.436;5.978;2022-08-19T00:54:24;34.47;33.14;35.97;;
67308;Laerm;57662;51.436;5.978;2022-08-19T00:54:35;34.38;33.05;35.80;;
67308;Laerm;57662;51.436;5.978;2022-08-19T00:54:46;34.50;33.10;35.68;;
67308;Laerm;57662;51.436;5.978;2022-08-19T00:54:57;34.60;33.15;36.29;;
67308;Laerm;57662;51.436;5.978;2022-08-19T00:55:08;35.19;33.66;37.25;;
67308;Laerm;57662;51.436;5.978;2022-08-19T00:55:23;36.00;33.58;38.43;;
67308;Laerm;57662;51.436;5.978;2022-08-19T00:55:34;35.97;34.33;38.18;;
67308;Laerm;57662;51.436;5.978;2022-08-19T00:55:45;35.97;34.03;38.63;;
67308;Laerm;57662;51.436;5.978;2022-08-19T00:55:56;35.65;33.66;38.49;;
67308;Laerm;57662;51.436;5.978;2022-08-19T00:56:08;35.27;33.80;37.17;;
67308;Laerm;57662;51.436;5.978;2022-08-19T00:56:19;34.91;33.41;37.20;;
67308;Laerm;57662;51.436;5.978;2022-08-19T00:56:29;34.81;33.26;36.48;;
67308;Laerm;57662;51.436;5.978;2022-08-19T00:56:40;34.63;33.25;35.92;;
67308;Laerm;57662;51.436;5.978;2022-08-19T00:56:51;34.99;33.14;36.52;;
67308;Laerm;57662;51.436;5.978;2022-08-19T00:57:02;34.54;33.03;36.10;;
67308;Laerm;57662;51.436;5.978;2022-08-19T00:57:15;34.57;33.04;36.33;;
67308;Laerm;57662;51.436;5.978;2022-08-19T00:57:28;34.67;33.32;36.05;;
67308;Laerm;57662;51.436;5.978;2022-08-19T00:57:40;34.69;33.40;36.09;;
67308;Laerm;57662;51.436;5.978;2022-08-19T00:57:53;34.67;33.08;36.44;;
67308;Laerm;57662;51.436;5.978;2022-08-19T00:58:08;34.77;33.34;36.43;;
67308;Laerm;57662;51.436;5.978;2022-08-19T00:58:20;34.76;33.52;36.56;;
67308;Laerm;57662;51.436;5.978;2022-08-19T00:58:32;34.71;33.46;36.22;;
67308;Laerm;57662;51.436;5.978;2022-08-19T00:58:43;34.77;33.14;36.41;;
67308;Laerm;57662;51.436;5.978;2022-08-19T00:58:55;34.73;33.18;36.39;;
67308;Laerm;57662;51.436;5.978;2022-08-19T00:59:06;34.75;33.33;36.03;;
67308;Laerm;57662;51.436;5.978;2022-08-19T00:59:19;34.85;33.60;36.52;;
67308;Laerm;57662;51.436;5.978;2022-08-19T00:59:29;34.90;33.47;36.07;;
67308;Laerm;57662;51.436;5.978;2022-08-19T00:59:40;35.02;33.69;36.31;;
67308;Laerm;57662;51.436;5.978;2022-08-19T00:59:52;34.98;33.50;37.09;;
67308;Laerm;57662;51.436;5.978;2022-08-19T01:00:06;35.08;33.93;36.77;;
67308;Laerm;57662;51.436;5.978;2022-08-19T01:00:18;40.71;33.73;51.35;;
67308;Laerm;57662;51.436;5.978;2022-08-19T01:00:28;34.88;33.41;37.60;;
67308;Laerm;57662;51.436;5.978;2022-08-19T01:00:39;35.06;33.69;36.92;;
67308;Laerm;57662;51.436;5.978;2022-08-19T01:00:49;35.21;33.91;36.85;;
67308;Laerm;57662;51.436;5.978;2022-08-19T01:01:00;35.08;33.71;36.53;;
67308;Laerm;57662;51.436;5.978;2022-08-19T01:01:10;35.47;33.90;37.18;;
67308;Laerm;57662;51.436;5.978;2022-08-19T01:01:20;35.29;33.61;36.92;;
67308;Laerm;57662;51.436;5.978;2022-08-19T01:01:31;35.00;33.24;36.25;;
67308;Laerm;57662;51.436;5.978;2022-08-19T01:01:42;34.97;33.77;36.10;;
67308;Laerm;57662;51.436;5.978;2022-08-19T01:01:53;35.08;33.52;37.13;;
67308;Laerm;57662;51.436;5.978;2022-08-19T01:02:03;35.13;33.61;36.52;;
67308;Laerm;57662;51.436;5.978;2022-08-19T01:02:15;35.06;34.00;36.27;;